createdAt,value
2022-10-23T00:00:45.977Z,94002.69
2022-10-23T00:01:47.449Z,94000.88
2022-10-23T00:02:52.547Z,93995.56
2022-10-23T00:03:56.077Z,94003.91
2022-10-23T00:04:57.859Z,93998.22
2022-10-23T00:05:59.300Z,93997.59
2022-10-23T00:07:00.735Z,93995.56
2022-10-23T00:08:02.147Z,93993.47
2022-10-23T00:09:05.937Z,93996.53
2022-10-23T00:10:09.624Z,93995.94
2022-10-23T00:11:13.845Z,93991.88
2022-10-23T00:12:15.313Z,93989.00
2022-10-23T00:13:16.744Z,93992.47
2022-10-23T00:14:19.485Z,93996.16
2022-10-23T00:15:23.561Z,94002.66
2022-10-23T00:16:25.122Z,93996.38
2022-10-23T00:17:26.577Z,94003.09
2022-10-23T00:18:28.061Z,93997.19
2022-10-23T00:19:29.551Z,94005.94
2022-10-23T00:20:31.020Z,93997.59
2022-10-23T00:21:32.535Z,94010.41
2022-10-23T00:22:34.890Z,94006.97
2022-10-23T00:23:36.349Z,94004.91
2022-10-23T00:24:37.821Z,94008.56
2022-10-23T00:25:39.316Z,94005.09
2022-10-23T00:26:41.054Z,94004.66
2022-10-23T00:27:42.796Z,94004.25
2022-10-23T00:28:46.015Z,93999.00
2022-10-23T00:29:47.474Z,94005.91
2022-10-23T00:30:50.248Z,94004.88
2022-10-23T00:31:51.694Z,94004.69
2022-10-23T00:32:53.127Z,93999.56
2022-10-23T00:33:54.568Z,93999.41
2022-10-23T00:34:55.986Z,93994.28
2022-10-23T00:35:57.453Z,94002.63
2022-10-23T00:36:58.907Z,93987.13
2022-10-23T00:38:00.343Z,93991.22
2022-10-23T00:39:01.839Z,93992.84
2022-10-23T00:40:04.009Z,93989.41
2022-10-23T00:41:07.187Z,93999.81
2022-10-23T00:42:10.629Z,93999.41
2022-10-23T00:43:18.285Z,93993.66
2022-10-23T00:44:57.255Z,93997.16
2022-10-23T00:46:00.487Z,93989.81
2022-10-23T00:47:02.021Z,93992.25
2022-10-23T00:48:04.303Z,93989.78
2022-10-23T00:49:07.708Z,93991.47
2022-10-23T00:50:09.276Z,93993.25
2022-10-23T00:51:10.691Z,93997.75
2022-10-23T00:52:13.697Z,93988.81
2022-10-23T00:53:16.655Z,93995.28
2022-10-23T00:54:24.419Z,93995.09
2022-10-23T00:55:27.767Z,93995.09
2022-10-23T00:56:31.227Z,93993.06
2022-10-23T00:57:32.687Z,93988.59
2022-10-23T00:58:34.128Z,93987.56
2022-10-23T00:59:35.816Z,93988.75
2022-10-23T01:00:43.979Z,93980.00
2022-10-23T01:01:46.972Z,93982.47
2022-10-23T01:02:48.652Z,93978.00
2022-10-23T01:03:51.099Z,93977.97
2022-10-23T01:04:52.597Z,93983.91
2022-10-23T01:06:08.028Z,93975.53
2022-10-23T01:07:15.488Z,93972.69
2022-10-23T01:08:23.207Z,93976.16
2022-10-23T01:09:31.488Z,93979.63
2022-10-23T01:10:40.728Z,93979.03
2022-10-23T01:11:48.583Z,93975.34
2022-10-23T01:12:55.343Z,93965.38
2022-10-23T01:15:10.174Z,93969.63
2022-10-23T01:16:17.787Z,93969.00
2022-10-23T01:17:27.920Z,93978.41
2022-10-23T01:18:36.793Z,93968.38
2022-10-23T01:19:50.994Z,93969.22
2022-10-23T01:20:59.739Z,93970.16
2022-10-23T01:22:12.920Z,93974.72
2022-10-23T01:23:47.575Z,93973.84
2022-10-23T01:24:56.475Z,93968.97
2022-10-23T01:26:23.742Z,93970.44
2022-10-23T01:27:31.519Z,93971.47
2022-10-23T01:28:39.547Z,93973.88
2022-10-23T01:29:45.814Z,93972.84
2022-10-23T01:30:48.395Z,93973.47
2022-10-23T01:31:53.798Z,93974.69
2022-10-23T01:33:01.579Z,93970.59
2022-10-23T01:34:08.613Z,93983.25
2022-10-23T01:35:13.994Z,93972.66
2022-10-23T01:36:20.489Z,93980.81
2022-10-23T01:37:28.351Z,93973.09
2022-10-23T01:38:38.831Z,93962.09
2022-10-23T01:39:47.005Z,93960.88
2022-10-23T01:40:54.647Z,93961.44
2022-10-23T01:42:03.870Z,93954.31
2022-10-23T01:43:12.683Z,93952.06
2022-10-23T01:44:20.045Z,93950.69
2022-10-23T01:45:25.493Z,93960.41
2022-10-23T01:46:28.218Z,93965.97
2022-10-23T01:47:34.122Z,93964.88
2022-10-23T01:48:37.084Z,93963.97
2022-10-23T01:49:41.722Z,93962.97
2022-10-23T01:50:45.111Z,93955.84
2022-10-23T01:51:51.496Z,93958.72
2022-10-23T01:52:52.966Z,93950.22
2022-10-23T01:53:57.728Z,93948.75
2022-10-23T01:55:01.436Z,93951.16
2022-10-23T01:56:07.208Z,93952.34
2022-10-23T01:57:10.982Z,93948.44
2022-10-23T01:58:16.275Z,93954.91
2022-10-23T01:59:22.370Z,93954.06
2022-10-23T02:00:24.042Z,93955.88
2022-10-23T02:01:29.884Z,93961.13
2022-10-23T02:02:33.521Z,93959.41
2022-10-23T02:03:37.058Z,93963.84
2022-10-23T02:04:45.697Z,93960.78
2022-10-23T02:05:47.149Z,93960.56
2022-10-23T02:06:48.634Z,93963.44
2022-10-23T02:07:51.003Z,93970.38
2022-10-23T02:08:52.548Z,93968.88
2022-10-23T02:09:54.161Z,93962.78
2022-10-23T02:11:04.515Z,93957.25
2022-10-23T02:12:09.296Z,93950.28
2022-10-23T02:13:16.725Z,93950.50
2022-10-23T02:14:24.415Z,93952.59
2022-10-23T02:15:30.706Z,93955.38
2022-10-23T02:16:39.340Z,93957.03
2022-10-23T02:17:50.296Z,93949.84
2022-10-23T02:18:59.435Z,93953.53
2022-10-23T02:20:14.483Z,93950.94
2022-10-23T02:21:22.238Z,93951.78
2022-10-23T02:22:28.672Z,93942.81
2022-10-23T02:23:35.283Z,93945.44
2022-10-23T02:24:43.416Z,93938.16
2022-10-23T02:25:51.310Z,93939.94
2022-10-23T02:26:55.188Z,93939.34
2022-10-23T02:28:01.054Z,93934.88
2022-10-23T02:29:09.202Z,93940.22
2022-10-23T02:30:12.614Z,93942.31
2022-10-23T02:31:18.730Z,93936.50
2022-10-23T02:32:23.481Z,93935.69
2022-10-23T02:33:27.174Z,93935.53
2022-10-23T02:34:28.712Z,93939.34
2022-10-23T02:35:30.396Z,93934.44
2022-10-23T02:36:32.439Z,93933.19
2022-10-23T02:37:33.884Z,93934.63
2022-10-23T02:38:37.217Z,93932.66
2022-10-23T02:39:39.277Z,93932.41
2022-10-23T02:40:44.087Z,93935.06
2022-10-23T02:41:51.037Z,93933.84
2022-10-23T02:42:57.955Z,93934.00
2022-10-23T02:44:15.604Z,93928.25
2022-10-23T02:45:23.981Z,93925.50
2022-10-23T02:46:31.930Z,93930.38
2022-10-23T02:47:44.540Z,93926.06
2022-10-23T02:48:55.596Z,93925.25
2022-10-23T02:50:05.427Z,93919.16
2022-10-23T02:51:11.961Z,93922.56
2022-10-23T02:52:19.889Z,93917.50
2022-10-23T02:53:31.812Z,93916.69
2022-10-23T02:54:58.868Z,93915.25
2022-10-23T02:56:06.855Z,93913.47
2022-10-23T02:57:18.876Z,93904.44
2022-10-23T02:58:26.854Z,93909.41
2022-10-23T02:59:36.948Z,93899.88
2022-10-23T03:00:44.738Z,93895.44
2022-10-23T03:01:52.548Z,93890.34
2022-10-23T03:02:57.880Z,93887.69
2022-10-23T03:04:02.920Z,93883.00
2022-10-23T03:05:08.475Z,93891.78
2022-10-23T03:06:09.982Z,93889.38
2022-10-23T03:07:13.570Z,93881.69
2022-10-23T03:08:15.358Z,93888.34
2022-10-23T03:09:17.511Z,93876.97
2022-10-23T03:10:19.003Z,93887.56
2022-10-23T03:11:20.804Z,93889.22
2022-10-23T03:12:24.717Z,93883.72
2022-10-23T03:13:26.316Z,93880.09
2022-10-23T03:14:27.733Z,93876.41
2022-10-23T03:15:30.503Z,93872.34
2022-10-23T03:16:32.084Z,93881.28
2022-10-23T03:17:33.585Z,93878.03
2022-10-23T03:18:35.213Z,93885.91
2022-10-23T03:19:36.680Z,93882.25
2022-10-23T03:20:38.109Z,93881.47
2022-10-23T03:21:39.596Z,93896.16
2022-10-23T03:22:41.385Z,93891.44
2022-10-23T03:23:43.144Z,93892.28
2022-10-23T03:24:44.662Z,93888.22
2022-10-23T03:25:46.172Z,93897.22
2022-10-23T03:26:47.600Z,93891.75
2022-10-23T03:27:49.027Z,93888.34
2022-10-23T03:28:50.454Z,93884.09
2022-10-23T03:29:51.895Z,93890.19
2022-10-23T03:30:54.745Z,93885.25
2022-10-23T03:31:56.161Z,93888.13
2022-10-23T03:32:57.732Z,93889.97
2022-10-23T03:33:59.145Z,93896.06
2022-10-23T03:35:00.614Z,93896.28
2022-10-23T03:36:02.079Z,93891.22
2022-10-23T03:37:03.528Z,93903.00
2022-10-23T03:38:05.000Z,93894.09
2022-10-23T03:39:06.425Z,93888.59
2022-10-23T03:40:09.202Z,93887.78
2022-10-23T03:41:10.767Z,93893.00
2022-10-23T03:42:12.175Z,93893.25
2022-10-23T03:43:13.646Z,93893.66
2022-10-23T03:44:15.085Z,93891.38
2022-10-23T03:45:16.745Z,93894.78
2022-10-23T03:46:19.537Z,93896.13
2022-10-23T03:47:20.947Z,93899.22
2022-10-23T03:48:22.446Z,93901.06
2022-10-23T03:49:23.852Z,93896.25
2022-10-23T03:50:25.416Z,93893.44
2022-10-23T03:51:26.947Z,93891.00
2022-10-23T03:52:28.402Z,93886.50
2022-10-23T03:53:29.840Z,93889.19
2022-10-23T03:54:31.483Z,93888.19
2022-10-23T03:55:32.923Z,93876.44
2022-10-23T03:56:34.469Z,93877.84
2022-10-23T03:57:36.227Z,93883.72
2022-10-23T03:58:37.718Z,93884.56
2022-10-23T03:59:39.228Z,93883.34
2022-10-23T04:00:41.082Z,93876.44
2022-10-23T04:01:44.482Z,93883.34
2022-10-23T04:02:46.632Z,93880.28
2022-10-23T04:03:48.219Z,93883.34
2022-10-23T04:04:49.792Z,93876.69
2022-10-23T04:05:52.324Z,93871.16
2022-10-23T04:06:53.945Z,93872.59
2022-10-23T04:07:55.430Z,93866.03
2022-10-23T04:08:56.895Z,93868.69
2022-10-23T04:09:58.318Z,93875.63
2022-10-23T04:10:59.887Z,93874.44
2022-10-23T04:12:01.336Z,93865.69
2022-10-23T04:13:02.766Z,93864.41
2022-10-23T04:14:04.263Z,93869.53
2022-10-23T04:15:06.438Z,93868.69
2022-10-23T04:16:07.934Z,93867.66
2022-10-23T04:17:10.724Z,93864.22
2022-10-23T04:18:12.126Z,93865.03
2022-10-23T04:19:13.611Z,93862.41
2022-10-23T04:20:15.096Z,93870.06
2022-10-23T04:21:16.799Z,93866.00
2022-10-23T04:22:18.295Z,93862.97
2022-10-23T04:23:20.129Z,93861.91
2022-10-23T04:24:21.566Z,93863.97
2022-10-23T04:25:23.037Z,93864.66
2022-10-23T04:26:24.604Z,93859.47
2022-10-23T04:27:26.003Z,93857.59
2022-10-23T04:28:28.024Z,93856.81
2022-10-23T04:29:29.502Z,93853.78
2022-10-23T04:30:30.908Z,93855.63
2022-10-23T04:31:32.348Z,93860.91
2022-10-23T04:32:35.222Z,93861.94
2022-10-23T04:33:36.701Z,93861.53
2022-10-23T04:34:38.103Z,93860.72
2022-10-23T04:35:39.533Z,93864.41
2022-10-23T04:36:41.184Z,93864.13
2022-10-23T04:37:42.960Z,93866.03
2022-10-23T04:38:44.620Z,93866.69
2022-10-23T04:39:46.112Z,93869.28
2022-10-23T04:40:47.535Z,93872.19
2022-10-23T04:41:48.951Z,93876.38
2022-10-23T04:42:50.339Z,93874.50
2022-10-23T04:43:51.795Z,93879.00
2022-10-23T04:44:53.209Z,93878.22
2022-10-23T04:45:54.616Z,93871.94
2022-10-23T04:46:56.086Z,93876.88
2022-10-23T04:47:58.994Z,93877.00
2022-10-23T04:49:00.384Z,93877.38
2022-10-23T04:50:01.898Z,93878.56
2022-10-23T04:51:05.586Z,93875.09
2022-10-23T04:52:07.071Z,93877.91
2022-10-23T04:53:08.919Z,93870.84
2022-10-23T04:54:10.429Z,93871.16
2022-10-23T04:55:12.053Z,93874.22
2022-10-23T04:56:14.126Z,93876.75
2022-10-23T04:57:15.589Z,93864.75
2022-10-23T04:58:17.132Z,93873.03
2022-10-23T04:59:18.588Z,93869.22
2022-10-23T05:00:20.219Z,93862.03
2022-10-23T05:01:21.773Z,93864.97
2022-10-23T05:02:23.294Z,93867.78
2022-10-23T05:03:26.758Z,93865.28
2022-10-23T05:04:28.180Z,93856.22
2022-10-23T05:05:29.606Z,93857.03
2022-10-23T05:06:31.064Z,93853.06
2022-10-23T05:07:32.659Z,93863.34
2022-10-23T05:08:34.172Z,93856.69
2022-10-23T05:09:35.578Z,93864.78
2022-10-23T05:10:37.382Z,93868.22
2022-10-23T05:11:38.803Z,93866.41
2022-10-23T05:12:40.221Z,93865.16
2022-10-23T05:13:41.636Z,93865.59
2022-10-23T05:14:43.054Z,93862.06
2022-10-23T05:15:44.490Z,93862.06
2022-10-23T05:16:50.374Z,93858.63
2022-10-23T05:17:55.669Z,93852.44
2022-10-23T05:18:59.076Z,93856.44
2022-10-23T05:20:03.821Z,93853.19
2022-10-23T05:21:10.109Z,93856.81
2022-10-23T05:22:12.715Z,93853.72
2022-10-23T05:23:16.308Z,93852.09
2022-10-23T05:24:17.822Z,93850.28
2022-10-23T05:25:19.267Z,93851.19
2022-10-23T05:26:21.250Z,93855.56
2022-10-23T05:27:22.750Z,93858.84
2022-10-23T05:28:24.233Z,93857.69
2022-10-23T05:29:25.654Z,93861.06
2022-10-23T05:30:27.375Z,93866.41
2022-10-23T05:31:29.458Z,93869.84
2022-10-23T05:32:32.076Z,93869.16
2022-10-23T05:33:35.921Z,93868.16
2022-10-23T05:34:39.862Z,93873.50
2022-10-23T05:35:43.954Z,93871.06
2022-10-23T05:36:45.953Z,93875.75
2022-10-23T05:37:49.981Z,93871.75
2022-10-23T05:38:51.837Z,93882.28
2022-10-23T05:39:53.307Z,93877.03
2022-10-23T05:40:55.096Z,93875.75
2022-10-23T05:41:56.502Z,93874.22
2022-10-23T05:42:57.980Z,93877.59
2022-10-23T05:43:59.427Z,93870.34
2022-10-23T05:45:00.887Z,93874.72
2022-10-23T05:46:04.373Z,93870.34
2022-10-23T05:47:06.896Z,93868.63
2022-10-23T05:48:11.336Z,93870.25
2022-10-23T05:49:24.407Z,93869.38
2022-10-23T05:50:27.221Z,93858.63
2022-10-23T05:51:28.672Z,93865.91
2022-10-23T05:52:30.101Z,93862.38
2022-10-23T05:53:31.568Z,93868.09
2022-10-23T05:54:32.991Z,93866.88
2022-10-23T05:55:34.456Z,93866.53
2022-10-23T05:56:37.381Z,93866.66
2022-10-23T05:57:38.796Z,93871.16
2022-10-23T05:58:40.208Z,93868.34
2022-10-23T05:59:41.669Z,93877.16
2022-10-23T06:00:43.110Z,93870.97
2022-10-23T06:01:44.606Z,93874.16
2022-10-23T06:02:46.068Z,93866.47
2022-10-23T06:03:47.494Z,93868.38
2022-10-23T06:04:48.918Z,93871.56
2022-10-23T06:05:52.124Z,93874.94
2022-10-23T06:06:53.530Z,93870.28
2022-10-23T06:07:58.183Z,93873.28
2022-10-23T06:08:59.614Z,93871.09
2022-10-23T06:10:01.101Z,93872.81
2022-10-23T06:11:07.511Z,93865.91
2022-10-23T06:12:08.958Z,93873.94
2022-10-23T06:13:10.463Z,93870.50
2022-10-23T06:14:11.887Z,93873.50
2022-10-23T06:15:13.367Z,93872.69
2022-10-23T06:16:16.605Z,93877.59
2022-10-23T06:17:18.012Z,93877.59
2022-10-23T06:18:19.425Z,93867.13
2022-10-23T06:19:20.835Z,93879.66
2022-10-23T06:20:26.544Z,93873.66
2022-10-23T06:21:31.532Z,93872.09
2022-10-23T06:22:33.585Z,93870.13
2022-10-23T06:23:37.025Z,93872.44
2022-10-23T06:24:38.423Z,93869.38
2022-10-23T06:25:39.830Z,93860.03
2022-10-23T06:26:41.219Z,93865.75
2022-10-23T06:27:42.609Z,93861.59
2022-10-23T06:28:44.111Z,93857.50
2022-10-23T06:29:45.565Z,93857.59
2022-10-23T06:30:47.003Z,93849.53
2022-10-23T06:31:48.451Z,93851.91
2022-10-23T06:32:50.103Z,93865.75
2022-10-23T06:33:51.533Z,93865.75
2022-10-23T06:34:52.974Z,93865.69
2022-10-23T06:35:55.797Z,93859.41
2022-10-23T06:36:58.590Z,93859.41
2022-10-23T06:38:00.047Z,93858.84
2022-10-23T06:39:01.530Z,93854.78
2022-10-23T06:40:03.399Z,93854.56
2022-10-23T06:41:06.243Z,93852.88
2022-10-23T06:42:07.699Z,93859.69
2022-10-23T06:43:09.110Z,93859.34
2022-10-23T06:44:10.538Z,93848.81
2022-10-23T06:45:11.975Z,93863.50
2022-10-23T06:46:13.402Z,93856.22
2022-10-23T06:47:14.831Z,93853.34
2022-10-23T06:48:16.564Z,93863.56
2022-10-23T06:49:18.042Z,93861.66
2022-10-23T06:50:19.483Z,93858.50
2022-10-23T06:51:20.943Z,93850.25
2022-10-23T06:52:42.048Z,93858.38
2022-10-23T06:53:45.335Z,93845.03
2022-10-23T06:54:46.728Z,93840.19
2022-10-23T06:55:50.209Z,93835.94
2022-10-23T06:56:54.490Z,93832.28
2022-10-23T06:57:55.911Z,93839.03
2022-10-23T06:58:57.354Z,93846.75
2022-10-23T06:59:58.777Z,93843.69
2022-10-23T07:01:00.699Z,93842.41
2022-10-23T07:02:02.769Z,93848.84
2022-10-23T07:03:04.808Z,93848.19
2022-10-23T07:04:06.270Z,93849.22
2022-10-23T07:05:11.264Z,93837.34
2022-10-23T07:06:15.451Z,93846.81
2022-10-23T07:07:16.968Z,93843.19
2022-10-23T07:08:19.768Z,93849.41
2022-10-23T07:09:21.212Z,93854.50
2022-10-23T07:10:22.961Z,93857.75
2022-10-23T07:11:24.375Z,93863.63
2022-10-23T07:12:25.791Z,93853.31
2022-10-23T07:13:27.230Z,93855.78
2022-10-23T07:14:28.701Z,93846.03
2022-10-23T07:15:30.333Z,93857.59
2022-10-23T07:16:31.811Z,93853.00
2022-10-23T07:17:33.224Z,93849.19
2022-10-23T07:19:40.975Z,93854.75
2022-10-23T07:20:43.019Z,93853.13
2022-10-23T07:21:44.416Z,93861.91
2022-10-23T07:22:51.026Z,93863.53
2022-10-23T07:23:53.779Z,93862.09
2022-10-23T07:24:55.179Z,93855.59
2022-10-23T07:26:02.097Z,93847.84
2022-10-23T07:27:04.349Z,93850.28
2022-10-23T07:28:05.764Z,93853.34
2022-10-23T07:29:07.517Z,93841.53
2022-10-23T07:30:10.154Z,93849.69
2022-10-23T07:31:12.145Z,93847.84
2022-10-23T07:32:13.585Z,93843.56
2022-10-23T07:33:15.033Z,93853.53
2022-10-23T07:34:16.444Z,93851.94
2022-10-23T07:35:18.120Z,93857.41
2022-10-23T07:36:19.670Z,93855.00
2022-10-23T07:37:21.061Z,93853.34
2022-10-23T07:38:22.515Z,93853.56
2022-10-23T07:39:25.613Z,93854.59
2022-10-23T07:40:27.004Z,93851.72
2022-10-23T07:41:28.445Z,93855.59
2022-10-23T07:42:29.864Z,93854.59
2022-10-23T07:44:33.683Z,93854.16
2022-10-23T07:45:35.129Z,93853.72
2022-10-23T07:46:36.547Z,93857.00
2022-10-23T07:47:38.348Z,93853.94
2022-10-23T07:48:40.229Z,93851.06
2022-10-23T07:49:41.698Z,93855.75
2022-10-23T07:50:43.205Z,93851.50
2022-10-23T07:51:48.938Z,93859.59
2022-10-23T07:52:52.769Z,93863.22
2022-10-23T07:53:54.188Z,93855.72
2022-10-23T07:54:56.928Z,93857.31
2022-10-23T07:56:00.787Z,93856.50
2022-10-23T07:57:02.215Z,93851.50
2022-10-23T07:58:03.633Z,93852.88
2022-10-23T07:59:05.155Z,93851.84
2022-10-23T08:00:07.833Z,93851.03
2022-10-23T08:01:17.189Z,93849.97
2022-10-23T08:02:18.697Z,93843.25
2022-10-23T08:03:20.305Z,93849.28
2022-10-23T08:04:21.979Z,93842.78
2022-10-23T08:05:23.456Z,93848.69
2022-10-23T08:06:25.203Z,93841.78
2022-10-23T08:07:26.619Z,93844.28
2022-10-23T08:08:28.029Z,93844.94
2022-10-23T08:09:29.499Z,93847.56
2022-10-23T08:10:32.260Z,93848.69
2022-10-23T08:11:34.296Z,93838.91
2022-10-23T08:12:37.280Z,93836.06
2022-10-23T08:13:38.705Z,93838.47
2022-10-23T08:14:40.195Z,93838.75
2022-10-23T08:15:43.013Z,93832.28
2022-10-23T08:16:44.463Z,93829.44
2022-10-23T08:17:46.124Z,93829.38
2022-10-23T08:18:47.581Z,93841.09
2022-10-23T08:19:49.042Z,93832.31
2022-10-23T08:20:50.529Z,93826.16
2022-10-23T08:21:51.998Z,93839.28
2022-10-23T08:22:53.457Z,93844.81
2022-10-23T08:23:56.164Z,93840.75
2022-10-23T08:24:57.571Z,93847.81
2022-10-23T08:26:01.989Z,93843.34
2022-10-23T08:27:03.883Z,93834.97
2022-10-23T08:28:06.497Z,93836.44
2022-10-23T08:29:07.969Z,93835.41
2022-10-23T08:30:10.519Z,93829.38
2022-10-23T08:31:14.384Z,93825.22
2022-10-23T08:32:15.873Z,93830.91
2022-10-23T08:33:17.289Z,93819.81
2022-10-23T08:34:18.716Z,93827.13
2022-10-23T08:35:20.231Z,93818.84
2022-10-23T08:36:23.760Z,93818.19
2022-10-23T08:37:25.171Z,93820.28
2022-10-23T08:38:26.612Z,93815.38
2022-10-23T08:39:28.046Z,93817.84
2022-10-23T08:40:29.478Z,93819.28
2022-10-23T08:41:35.108Z,93819.41
2022-10-23T08:42:39.312Z,93809.78
2022-10-23T08:43:46.678Z,93810.66
2022-10-23T08:44:56.995Z,93817.97
2022-10-23T08:46:06.173Z,93825.28
2022-10-23T08:47:14.873Z,93824.22
2022-10-23T08:48:21.357Z,93820.28
2022-10-23T08:49:34.011Z,93817.84
2022-10-23T08:50:40.836Z,93819.91
2022-10-23T08:51:46.648Z,93824.84
2022-10-23T08:52:52.073Z,93818.53
2022-10-23T08:53:59.254Z,93819.53
2022-10-23T08:55:10.844Z,93820.47
2022-10-23T08:56:18.159Z,93824.22
2022-10-23T08:57:23.725Z,93818.69
2022-10-23T08:58:34.222Z,93816.53
2022-10-23T08:59:42.919Z,93814.47
2022-10-23T09:00:50.155Z,93819.56
2022-10-23T09:01:58.082Z,93816.41
2022-10-23T09:03:02.602Z,93811.56
2022-10-23T09:04:05.119Z,93813.88
2022-10-23T09:05:13.605Z,93811.22
2022-10-23T09:06:25.127Z,93813.66
2022-10-23T09:07:38.465Z,93803.88
2022-10-23T09:08:46.925Z,93807.75
2022-10-23T09:10:01.566Z,93806.16
2022-10-23T09:11:08.048Z,93808.75
2022-10-23T09:12:13.067Z,93799.78
2022-10-23T09:13:40.143Z,93801.19
2022-10-23T09:15:02.421Z,93806.09
2022-10-23T09:16:15.116Z,93800.22
2022-10-23T09:17:24.273Z,93798.94
2022-10-23T09:18:26.102Z,93792.53
2022-10-23T09:19:27.977Z,93795.09
2022-10-23T09:20:32.812Z,93795.56
2022-10-23T09:21:35.794Z,93797.91
2022-10-23T09:22:37.294Z,93795.66
2022-10-23T09:23:38.734Z,93795.56
2022-10-23T09:24:42.996Z,93796.38
2022-10-23T09:25:45.938Z,93784.47
2022-10-23T09:26:48.826Z,93790.13
2022-10-23T09:27:54.977Z,93785.41
2022-10-23T09:29:14.058Z,93788.22
2022-10-23T09:30:29.092Z,93803.63
2022-10-23T09:31:30.520Z,93801.66
2022-10-23T09:32:33.953Z,93803.84
2022-10-23T09:33:35.499Z,93810.25
2022-10-23T09:34:36.948Z,93805.56
2022-10-23T09:35:38.372Z,93802.06
2022-10-23T09:36:49.828Z,93796.22
2022-10-23T09:37:51.819Z,93791.47
2022-10-23T09:38:54.590Z,93792.53
2022-10-23T09:40:14.307Z,93790.88
2022-10-23T09:41:19.255Z,93792.66
2022-10-23T09:42:23.632Z,93783.94
2022-10-23T09:43:25.081Z,93792.06
2022-10-23T09:44:30.460Z,93792.44
2022-10-23T09:45:34.221Z,93789.38
2022-10-23T09:46:39.898Z,93795.09
2022-10-23T09:47:42.155Z,93792.75
2022-10-23T09:48:43.808Z,93786.41
2022-10-23T09:49:48.148Z,93790.34
2022-10-23T09:50:51.796Z,93787.81
2022-10-23T09:51:59.588Z,93787.00
2022-10-23T09:53:01.093Z,93786.78
2022-10-23T09:54:02.556Z,93780.78
2022-10-23T09:55:19.866Z,93779.94
2022-10-23T09:56:26.464Z,93780.06
2022-10-23T09:57:32.112Z,93780.88
2022-10-23T09:58:36.314Z,93785.41
2022-10-23T09:59:40.336Z,93786.22
2022-10-23T10:00:47.235Z,93778.59
2022-10-23T10:01:51.756Z,93775.09
2022-10-23T10:02:58.910Z,93779.59
2022-10-23T10:04:00.347Z,93776.47
2022-10-23T10:05:22.461Z,93789.25
2022-10-23T10:06:26.258Z,93781.81
2022-10-23T10:07:33.415Z,93781.25
2022-10-23T10:08:42.678Z,93785.41
2022-10-23T10:09:44.145Z,93787.94
2022-10-23T10:10:52.080Z,93782.28
2022-10-23T10:11:55.783Z,93770.59
2022-10-23T10:13:00.706Z,93776.16
2022-10-23T10:14:26.869Z,93770.91
2022-10-23T10:15:35.325Z,93777.41
2022-10-23T10:16:44.175Z,93782.97
2022-10-23T10:17:57.266Z,93784.06
2022-10-23T10:19:05.866Z,93782.41
2022-10-23T10:20:23.583Z,93776.94
2022-10-23T10:21:28.499Z,93768.81
2022-10-23T10:22:35.497Z,93780.56
2022-10-23T10:23:46.440Z,93778.13
2022-10-23T10:24:53.214Z,93778.47
2022-10-23T10:26:03.057Z,93779.59
2022-10-23T10:27:14.061Z,93765.72
2022-10-23T10:28:30.938Z,93774.41
2022-10-23T10:29:52.400Z,93774.88
2022-10-23T10:31:08.791Z,93775.34
2022-10-23T10:32:27.002Z,93774.19
2022-10-23T10:33:35.692Z,93771.84
2022-10-23T10:34:46.047Z,93765.03
2022-10-23T10:35:55.063Z,93764.94
2022-10-23T10:37:05.824Z,93771.50
2022-10-23T10:38:31.549Z,93767.91
2022-10-23T10:39:40.835Z,93775.56
2022-10-23T10:40:47.594Z,93764.78
2022-10-23T10:42:16.571Z,93760.94
2022-10-23T10:43:29.050Z,93762.47
2022-10-23T10:44:50.516Z,93754.66
2022-10-23T10:46:02.886Z,93750.03
2022-10-23T10:47:15.883Z,93744.00
2022-10-23T10:48:40.902Z,93748.06
2022-10-23T10:49:48.028Z,93749.69
2022-10-23T10:50:54.219Z,93755.94
2022-10-23T10:52:04.299Z,93748.28
2022-10-23T10:53:14.904Z,93747.81
2022-10-23T10:54:27.665Z,93751.28
2022-10-23T10:55:34.932Z,93747.81
2022-10-23T10:56:41.546Z,93748.25
2022-10-23T10:57:47.318Z,93747.53
2022-10-23T10:58:52.922Z,93738.03
2022-10-23T10:59:58.816Z,93734.25
2022-10-23T11:01:08.357Z,93734.97
2022-10-23T11:02:26.517Z,93729.41
2022-10-23T11:03:37.581Z,93741.22
2022-10-23T11:04:47.370Z,93740.56
2022-10-23T11:05:51.545Z,93739.03
2022-10-23T11:06:55.302Z,93744.38
2022-10-23T11:07:59.879Z,93742.84
2022-10-23T11:09:20.373Z,93747.97
2022-10-23T11:10:22.434Z,93737.06
2022-10-23T11:11:31.295Z,93737.28
2022-10-23T11:12:32.872Z,93753.75
2022-10-23T11:13:36.950Z,93747.03
2022-10-23T11:14:38.399Z,93743.75
2022-10-23T11:15:43.849Z,93738.72
2022-10-23T11:16:50.321Z,93735.25
2022-10-23T11:17:55.703Z,93735.09
2022-10-23T11:19:07.500Z,93737.78
2022-10-23T11:20:25.047Z,93736.19
2022-10-23T11:21:34.736Z,93731.38
2022-10-23T11:22:42.960Z,93734.75
2022-10-23T11:24:07.596Z,93730.41
2022-10-23T11:25:26.231Z,93732.25
2022-10-23T11:26:39.390Z,93740.25
2022-10-23T11:28:04.429Z,93740.00
2022-10-23T11:29:40.222Z,93732.09
2022-10-23T11:30:59.009Z,93733.84
2022-10-23T11:32:19.941Z,93739.13
2022-10-23T11:33:57.983Z,93728.13
2022-10-23T11:35:21.360Z,93730.59
2022-10-23T11:36:41.356Z,93731.00
2022-10-23T11:37:43.079Z,93730.84
2022-10-23T11:38:47.435Z,93734.06
2022-10-23T11:40:17.042Z,93728.94
2022-10-23T11:41:25.295Z,93732.25
2022-10-23T11:42:32.866Z,93727.22
2022-10-23T11:43:47.808Z,93722.31
2022-10-23T11:44:50.461Z,93730.81
2022-10-23T11:45:51.932Z,93726.22
2022-10-23T11:47:01.459Z,93732.88
2022-10-23T11:48:06.607Z,93728.00
2022-10-23T11:49:20.845Z,93732.09
2022-10-23T11:50:31.845Z,93725.69
2022-10-23T11:51:35.190Z,93729.09
2022-10-23T11:52:45.703Z,93727.53
2022-10-23T11:53:52.284Z,93717.84
2022-10-23T11:55:01.146Z,93713.34
2022-10-23T11:56:05.220Z,93714.13
2022-10-23T11:57:12.489Z,93718.47
2022-10-23T11:58:25.252Z,93711.91
2022-10-23T11:59:30.090Z,93708.88
2022-10-23T12:00:33.346Z,93706.03
2022-10-23T12:01:40.415Z,93704.59
2022-10-23T12:02:43.222Z,93700.88
2022-10-23T12:03:53.907Z,93704.72
2022-10-23T12:04:55.824Z,93697.22
2022-10-23T12:06:02.022Z,93699.47
2022-10-23T12:07:16.287Z,93696.47
2022-10-23T12:08:22.299Z,93700.28
2022-10-23T12:09:27.479Z,93704.47
2022-10-23T12:10:32.417Z,93702.22
2022-10-23T12:11:44.185Z,93682.84
2022-10-23T12:12:55.423Z,93684.09
2022-10-23T12:13:56.914Z,93696.97
2022-10-23T12:15:18.109Z,93693.47
2022-10-23T12:16:19.577Z,93692.16
2022-10-23T12:17:33.495Z,93685.78
2022-10-23T12:18:45.829Z,93687.25
2022-10-23T12:19:51.164Z,93686.97
2022-10-23T12:20:56.293Z,93685.88
2022-10-23T12:22:00.720Z,93686.03
2022-10-23T12:23:15.691Z,93681.66
2022-10-23T12:24:33.519Z,93682.22
2022-10-23T12:25:45.760Z,93682.69
2022-10-23T12:27:10.455Z,93684.78
2022-10-23T12:28:34.287Z,93681.94
2022-10-23T12:29:53.183Z,93683.38
2022-10-23T12:31:07.381Z,93669.38
2022-10-23T12:32:25.144Z,93668.75
2022-10-23T12:33:32.501Z,93665.50
2022-10-23T12:34:45.776Z,93670.78
2022-10-23T12:36:13.729Z,93670.63
2022-10-23T12:37:35.204Z,93654.06
2022-10-23T12:38:44.555Z,93652.25
2022-10-23T12:39:52.405Z,93644.13
2022-10-23T12:40:56.570Z,93644.97
2022-10-23T12:41:59.249Z,93648.34
2022-10-23T12:43:01.470Z,93651.47
2022-10-23T12:44:05.446Z,93655.63
2022-10-23T12:45:17.253Z,93654.28
2022-10-23T12:46:28.783Z,93645.16
2022-10-23T12:47:30.712Z,93633.00
2022-10-23T12:48:33.567Z,93642.00
2022-10-23T12:49:35.001Z,93646.94